Holcombville, New York
Current Conditions -  °F | °C
As of 4:53 AM on Saturday 22 Nov 2014 (Local Time) from KGFL Reporting Station
Few Clouds Few Clouds  
Wind Chill: 12°   Ceiling: Unl
Heat Index: 22°   Visibility: 10mi
Dew Point: 13°   Wind: 9mph
Humidity: 68%   Direction: 190°S
Pressure: 30.37"   Gusts: NA
Location:  43.7289°N, 73.9027°W
Report Text: KGFL 220953Z AUTO 19008KT 10SM FEW029 M06/M11 A3037 RMK AO2 SLP295 T10561106
Loading
Personal Weather Stations






























Interactive Weather Map New forecast layout! Learn more

10-Day Weather Forecast

Advertisements
Track Severe Weather on mobile